Time;durP1;ratioP1;P1;durP2;ratioP2;P2;SDS_P1;SDS_P2;PMS_P1;PMS_P2;Temp;Humidity;BMP_temperature;BMP_pressure;BME280_temperature;BME280_humidity;BME280_pressure;Samples;Min_cycle;Max_cycle;Signal;HPM_P1;HPM_P2
2022/05/25 00:00:19;;;;;;;3.95;2.20;;;;;;;22.58;48.80;98663.22;4994717;28;20037;-79
2022/05/25 00:02:45;;;;;;;3.70;2.03;;;;;;;22.59;48.77;98670.16;4994777;28;20176;-79
2022/05/25 00:05:10;;;;;;;3.78;2.40;;;;;;;22.59;48.76;98677.34;5011654;28;20044;-79
2022/05/25 00:07:36;;;;;;;6.07;2.20;;;;;;;22.59;48.35;98672.03;4978358;28;20045;-79
2022/05/25 00:10:02;;;;;;;5.03;2.20;;;;;;;22.58;48.57;98670.38;4994943;28;20069;-79
2022/05/25 00:12:27;;;;;;;5.72;2.10;;;;;;;22.58;48.80;98668.53;5012675;28;20026;-79
2022/05/25 00:14:53;;;;;;;3.05;2.20;;;;;;;22.58;48.44;98670.38;4995024;28;20030;-79
2022/05/25 00:17:18;;;;;;;6.25;2.63;;;;;;;22.57;48.72;98664.22;5011608;28;20112;-79
2022/05/25 00:19:59;;;;;;;3.15;2.40;;;;;;;22.56;48.54;98681.19;5011311;28;20088;-79
2022/05/25 00:22:25;;;;;;;5.63;2.33;;;;;;;22.53;48.71;98681.63;5011237;28;20058;-78
2022/05/25 00:24:51;;;;;;;6.90;2.60;;;;;;;22.50;48.59;98670.53;4995691;28;20041;-79
2022/05/25 00:27:17;;;;;;;4.93;2.20;;;;;;;22.50;48.36;98682.00;5011155;28;20397;-79
2022/05/25 00:29:43;;;;;;;6.80;2.70;;;;;;;22.48;48.42;98678.69;5011452;28;20113;-79
2022/05/25 00:32:09;;;;;;;5.15;2.40;;;;;;;22.44;48.60;98672.16;5011413;28;20607;-79
2022/05/25 00:34:34;;;;;;;8.77;2.47;;;;;;;22.42;48.42;98671.50;4994501;28;20488;-79
2022/05/25 00:36:59;;;;;;;4.18;2.47;;;;;;;22.38;48.50;98667.59;4994844;28;20428;-79
2022/05/25 00:39:25;;;;;;;5.43;2.33;;;;;;;22.39;48.76;98677.22;5011059;28;20034;-79
2022/05/25 00:41:51;;;;;;;9.88;2.35;;;;;;;22.38;48.62;98680.91;4994668;28;20030;-79
2022/05/25 00:44:17;;;;;;;4.63;2.20;;;;;;;22.37;48.67;98679.25;4978857;28;20042;-79
2022/05/25 00:46:42;;;;;;;6.10;2.70;;;;;;;22.37;48.72;98701.34;4997461;28;20512;-79
2022/05/25 00:49:24;;;;;;;6.65;2.40;;;;;;;22.38;48.42;98694.19;5014502;28;20026;-79
2022/05/25 00:51:57;;;;;;;4.68;2.75;;;;;;;22.38;48.35;98700.34;4982694;28;20045;-80
2022/05/25 00:54:45;;;;;;;6.47;2.70;;;;;;;22.39;48.46;98704.66;5015119;28;20523;-79
2022/05/25 00:57:31;;;;;;;3.47;2.63;;;;;;;22.40;48.25;98702.81;5014140;28;20038;-79
2022/05/25 01:00:17;;;;;;;6.15;2.40;;;;;;;22.40;48.12;98700.94;5014189;28;20048;-79
2022/05/25 01:02:44;;;;;;;6.82;2.47;;;;;;;22.41;48.24;98693.81;5015197;28;20478;-79
2022/05/25 01:05:10;;;;;;;6.15;2.85;;;;;;;22.40;47.90;98692.16;5014290;28;20465;-78
2022/05/25 01:07:49;;;;;;;7.70;2.40;;;;;;;22.40;48.32;98700.13;4998096;28;20397;-79
2022/05/25 01:10:42;;;;;;;5.22;2.60;;;;;;;22.37;47.99;98701.34;5015376;28;20091;-79
2022/05/25 01:13:11;;;;;;;6.20;2.50;;;;;;;22.32;48.26;98692.31;5015106;28;20554;-79
2022/05/25 01:16:11;;;;;;;7.63;2.28;;;;;;;22.36;47.97;98701.53;5014155;28;20034;-79
2022/05/25 01:18:40;;;;;;;6.53;2.20;;;;;;;22.35;48.31;98700.72;5013981;28;20053;-79
2022/05/25 01:21:12;;;;;;;6.13;2.50;;;;;;;22.31;48.18;98696.81;5015496;28;20026;-78
2022/05/25 01:23:54;;;;;;;4.93;2.58;;;;;;;22.33;48.22;98705.41;4998218;28;20022;-78
2022/05/25 01:26:31;;;;;;;5.97;2.47;;;;;;;22.35;48.02;98711.34;5015196;28;20037;-78
2022/05/25 01:29:02;;;;;;;5.75;2.45;;;;;;;22.36;48.06;98710.34;5013775;28;20026;-79
2022/05/25 01:32:06;;;;;;;4.70;2.10;;;;;;;22.37;48.06;98719.94;5013942;28;20049;-79
2022/05/25 01:34:43;;;;;;;4.60;1.85;;;;;;;22.37;48.08;98719.94;5014612;28;20104;-79
2022/05/25 01:37:24;;;;;;;8.15;1.90;;;;;;;22.36;48.12;98718.31;4997218;28;20456;-79
2022/05/25 01:40:06;;;;;;;5.43;2.30;;;;;;;22.35;48.19;98724.66;5013790;28;20032;-79
2022/05/25 01:42:35;;;;;;;4.80;2.00;;;;;;;22.34;48.21;98720.34;4997920;28;20030;-79
2022/05/25 01:45:02;;;;;;;7.55;1.90;;;;;;;22.33;47.92;98726.69;4997464;28;20489;-79
2022/05/25 01:47:28;;;;;;;5.90;2.08;;;;;;;22.33;48.15;98725.84;4997375;28;20065;-79
2022/05/25 01:50:10;;;;;;;7.35;1.92;;;;;;;22.32;48.31;98725.03;4980938;28;20184;-79
2022/05/25 01:52:39;;;;;;;4.82;2.10;;;;;;;22.31;48.00;98730.56;5013461;28;20091;-79
2022/05/25 01:55:07;;;;;;;4.20;2.05;;;;;;;22.28;48.09;98722.94;4997508;28;20109;-79
2022/05/25 01:57:33;;;;;;;4.93;1.73;;;;;;;22.28;47.95;98730.91;4997287;28;20030;-79
2022/05/25 01:59:59;;;;;;;6.45;2.00;;;;;;;22.27;47.94;98727.44;4997009;28;20500;-79
2022/05/25 02:05:11;;;;;;;2.95;1.70;;;;;;;22.31;48.05;98749.16;5014483;28;20034;-79
2022/05/25 02:07:52;;;;;;;5.35;1.90;;;;;;;22.33;48.16;98747.13;4980686;28;20412;-78
2022/05/25 02:10:26;;;;;;;4.72;1.45;;;;;;;22.35;48.04;98751.25;5013312;28;20030;-79
2022/05/25 02:13:20;;;;;;;3.30;1.70;;;;;;;22.36;48.08;98757.38;5013192;28;20394;-79
2022/05/25 02:16:21;;;;;;;4.70;1.40;;;;;;;22.38;47.99;98750.06;5014320;28;20030;-79
2022/05/25 02:19:16;;;;;;;3.38;1.67;;;;;;;22.37;48.17;98757.19;5014061;28;20452;-79
2022/05/25 02:21:51;;;;;;;2.45;1.48;;;;;;;22.39;48.15;98757.00;5012794;28;20018;-79
2022/05/25 02:24:25;;;;;;;2.00;1.40;;;;;;;22.38;48.05;98760.69;5013153;28;20033;-78
2022/05/25 02:26:53;;;;;;;2.38;1.40;;;;;;;22.38;48.21;98750.06;4980389;28;20033;-79
2022/05/25 02:29:26;;;;;;;2.85;1.45;;;;;;;22.37;48.00;98751.06;4979907;28;20034;-78
2022/05/25 02:32:18;;;;;;;5.32;1.50;;;;;;;22.36;48.41;98758.22;5012291;28;20026;-78
2022/05/25 02:34:46;;;;;;;5.88;1.38;;;;;;;22.35;48.24;98758.41;4980345;28;20140;-78
2022/05/25 02:37:12;;;;;;;4.25;1.50;;;;;;;22.33;48.04;98760.41;4996301;28;20038;-78
2022/05/25 02:39:37;;;;;;;4.07;1.50;;;;;;;22.34;48.09;98759.41;4979952;28;20046;-78
2022/05/25 02:42:13;;;;;;;4.32;1.40;;;;;;;22.30;48.26;98758.97;4995459;28;20029;-78
2022/05/25 02:44:39;;;;;;;2.63;1.40;;;;;;;22.26;48.28;98762.19;4980539;28;20064;-78
2022/05/25 02:47:05;;;;;;;3.15;1.33;;;;;;;22.26;48.21;98765.66;5012637;28;20119;-78
2022/05/25 02:49:30;;;;;;;3.10;1.80;;;;;;;22.28;48.06;98773.44;5013078;28;20121;-78
2022/05/25 02:51:55;;;;;;;3.25;1.63;;;;;;;22.27;48.02;98769.97;5013172;28;20481;-78
2022/05/25 02:54:22;;;;;;;3.00;1.50;;;;;;;22.30;48.13;98769.63;5011697;28;20034;-78
2022/05/25 02:56:48;;;;;;;5.45;1.60;;;;;;;22.32;48.24;98767.59;5012984;28;20026;-78
2022/05/25 02:59:14;;;;;;;5.22;1.40;;;;;;;22.32;47.96;98769.44;5011874;28;20052;-78
2022/05/25 03:01:39;;;;;;;4.22;1.70;;;;;;;22.32;47.86;98761.44;5011805;28;20484;-78
2022/05/25 03:04:05;;;;;;;3.33;1.40;;;;;;;22.33;48.16;98765.75;4995606;28;20042;-78
2022/05/25 03:06:31;;;;;;;4.72;1.58;;;;;;;22.37;47.96;98769.66;4979450;28;20042;-78
2022/05/25 03:08:56;;;;;;;3.47;1.50;;;;;;;22.35;47.79;98771.72;4994792;28;20032;-78
2022/05/25 03:11:22;;;;;;;3.30;1.50;;;;;;;22.35;47.87;98769.03;4979387;28;20069;-78
2022/05/25 03:13:48;;;;;;;4.55;1.75;;;;;;;22.42;47.77;98775.22;4995386;28;20408;-78
2022/05/25 03:16:15;;;;;;;5.68;1.25;;;;;;;22.54;47.42;98788.84;4995330;28;20125;-78
2022/05/25 03:18:42;;;;;;;8.02;1.52;;;;;;;22.60;46.97;98793.38;4995495;28;20132;-79
2022/05/25 03:21:08;;;;;;;3.13;1.40;;;;;;;22.62;47.36;98793.19;5011573;28;20045;-78
2022/05/25 03:23:34;;;;;;;9.50;2.05;;;;;;;22.62;47.14;98798.50;5011454;28;20084;-76
2022/05/25 03:25:59;;;;;;;2.13;1.60;;;;;;;22.51;49.68;98805.19;5011504;28;20501;-77
2022/05/25 03:28:25;;;;;;;10.98;2.33;;;;;;;22.52;49.67;98806.84;4995461;28;20037;-77
2022/05/25 03:30:50;;;;;;;4.15;1.60;;;;;;;22.62;49.79;98814.47;5011320;28;20038;-77
2022/05/25 03:33:16;;;;;;;8.93;2.00;;;;;;;22.66;49.55;98813.06;5011589;28;20129;-76
2022/05/25 03:35:41;;;;;;;3.55;1.70;;;;;;;22.58;46.60;98817.53;5010797;28;20512;-77
2022/05/25 03:38:07;;;;;;;6.78;2.20;;;;;;;22.14;46.62;98813.22;5012519;28;20033;-77
2022/05/25 03:40:33;;;;;;;5.03;2.03;;;;;;;21.76;46.75;98818.75;5011308;28;20374;-81
2022/05/25 03:42:58;;;;;;;3.90;2.00;;;;;;;21.49;47.93;98829.06;5011399;28;20034;-79
2022/05/25 03:45:24;;;;;;;3.88;1.85;;;;;;;21.47;47.81;98835.53;5012566;28;20076;-81
2022/05/25 03:47:49;;;;;;;3.33;2.10;;;;;;;21.65;47.33;98827.22;5011290;28;20098;-80
2022/05/25 03:50:17;;;;;;;5.82;1.95;;;;;;;21.91;47.05;98837.31;4992780;28;20069;-80
2022/05/25 03:52:42;;;;;;;3.55;2.00;;;;;;;22.02;47.19;98833.34;5008801;28;20025;-81
2022/05/25 03:55:08;;;;;;;7.15;1.92;;;;;;;21.91;46.33;98834.66;4992493;28;20041;-81
2022/05/25 03:57:33;;;;;;;5.22;1.85;;;;;;;21.61;46.36;98844.53;4992773;28;20026;-81
2022/05/25 03:59:59;;;;;;;4.78;1.83;;;;;;;21.40;47.13;98845.25;5009017;28;20099;-81
2022/05/25 04:02:24;;;;;;;3.08;2.05;;;;;;;21.16;46.93;98841.88;5009103;28;20025;-82
2022/05/25 04:05:07;;;;;;;3.40;1.80;;;;;;;21.46;51.53;98855.16;4978404;28;20052;-86
2022/05/25 04:07:58;;;;;;;5.05;1.75;;;;;;;21.96;49.35;98850.84;5014697;28;20060;-76
2022/05/25 04:10:23;;;;;;;7.40;1.67;;;;;;;22.40;48.49;98846.41;5015976;28;20468;-77
2022/05/25 04:12:49;;;;;;;5.70;1.60;;;;;;;22.38;46.65;98845.78;4978626;28;20091;-77
2022/05/25 04:15:16;;;;;;;5.55;1.90;;;;;;;22.38;46.26;98837.81;5010653;28;20050;-77
2022/05/25 04:17:42;;;;;;;2.80;1.30;;;;;;;22.39;46.43;98848.25;4994800;28;20030;-77
2022/05/25 04:20:08;;;;;;;3.88;1.42;;;;;;;22.35;46.60;98839.00;4994842;28;20034;-77
2022/05/25 04:22:35;;;;;;;6.38;1.42;;;;;;;22.34;46.20;98847.97;4982648;28;20120;-77
2022/05/25 04:25:05;;;;;;;2.35;1.42;;;;;;;22.32;46.00;98847.34;5014806;28;20042;-76
2022/05/25 04:27:31;;;;;;;3.20;1.38;;;;;;;22.25;45.77;98856.25;4998790;28;20022;-77
2022/05/25 04:29:56;;;;;;;3.15;1.60;;;;;;;22.16;45.91;98853.72;4981991;28;20030;-77
2022/05/25 04:32:22;;;;;;;3.05;1.30;;;;;;;22.13;46.06;98858.59;5014764;28;20026;-78
2022/05/25 04:34:47;;;;;;;5.20;1.48;;;;;;;22.02;45.89;98860.72;4997949;28;20492;-78
2022/05/25 04:39:57;;;;;;;5.43;1.65;;;;;;;21.97;46.74;98863.13;5000879;28;20041;-77
2022/05/25 04:42:28;;;;;;;6.47;1.55;;;;;;;22.29;48.75;98866.31;5015491;28;20022;-81
2022/05/25 04:44:59;;;;;;;6.50;1.52;;;;;;;22.38;47.02;98869.72;4998703;28;20472;-77
2022/05/25 04:47:26;;;;;;;5.95;1.73;;;;;;;22.31;47.12;98874.13;5015616;28;20026;-77
2022/05/25 04:49:51;;;;;;;6.93;1.55;;;;;;;22.18;47.00;98880.13;4998367;28;20042;-78
2022/05/25 04:52:17;;;;;;;4.10;1.60;;;;;;;22.12;47.40;98887.00;5015317;28;20022;-81
2022/05/25 04:54:42;;;;;;;4.40;1.40;;;;;;;22.10;47.41;98878.41;5013814;28;20038;-75
2022/05/25 04:57:20;;;;;;;2.72;1.30;;;;;;;22.05;47.36;98876.31;5015149;28;20037;-77
2022/05/25 04:59:59;;;;;;;6.05;1.55;;;;;;;21.99;47.36;98882.38;4984140;28;20029;-77
2022/05/25 05:02:28;;;;;;;4.32;1.42;;;;;;;22.04;47.74;98887.97;5013974;28;20421;-77
2022/05/25 05:04:53;;;;;;;5.65;1.35;;;;;;;22.05;48.38;98886.94;4998126;28;20046;-76
2022/05/25 05:07:20;;;;;;;4.18;1.42;;;;;;;22.03;47.57;98890.81;5014945;28;20400;-77
2022/05/25 05:09:45;;;;;;;2.78;1.50;;;;;;;21.98;47.70;98885.22;4997464;28;20040;-76
2022/05/25 05:12:11;;;;;;;3.42;1.30;;;;;;;21.99;47.53;98897.50;5013741;28;20026;-76
2022/05/25 05:14:39;;;;;;;2.97;1.38;;;;;;;21.99;47.77;98898.31;5013914;28;20045;-76
2022/05/25 05:17:06;;;;;;;;;;;;;;;22.01;47.97;98893.66;5015206;28;20382;-76
2022/05/25 05:19:32;;;;;;;8.13;1.60;;;;;;;21.97;47.91;98886.25;5014687;28;19967;-76
2022/05/25 05:21:57;;;;;;;4.28;1.55;;;;;;;21.99;47.87;98895.66;5013529;28;20034;-77
2022/05/25 05:24:24;;;;;;;4.22;1.38;;;;;;;22.00;47.90;98901.81;5014922;28;20034;-76
2022/05/25 05:26:49;;;;;;;3.85;1.50;;;;;;;21.99;47.95;98897.50;5013744;28;20069;-77
2022/05/25 05:29:15;;;;;;;4.90;1.60;;;;;;;21.97;47.59;98897.69;4996720;28;20073;-77
2022/05/25 05:31:40;;;;;;;2.72;1.40;;;;;;;21.97;47.42;98899.53;5013142;28;20044;-77
2022/05/25 05:34:06;;;;;;;4.30;1.52;;;;;;;22.03;47.25;98909.41;5013076;28;20029;-80
2022/05/25 05:36:52;;;;;;;2.58;1.33;;;;;;;22.04;46.87;98903.06;4996971;28;20053;-79
2022/05/25 05:39:19;;;;;;;3.75;1.65;;;;;;;22.07;47.92;98905.34;5014193;28;20028;-79
2022/05/25 05:41:46;;;;;;;4.88;1.70;;;;;;;22.15;47.77;98913.22;4996936;28;20033;-82
2022/05/25 05:44:13;;;;;;;4.63;1.60;;;;;;;22.17;47.41;98907.69;5013370;28;20038;-81
2022/05/25 05:46:41;;;;;;;3.35;1.70;;;;;;;22.23;47.96;98910.47;4981000;28;20100;-81
2022/05/25 05:49:07;;;;;;;4.40;1.60;;;;;;;22.25;47.40;98909.44;5013266;28;20042;-82
2022/05/25 05:51:33;;;;;;;5.35;1.70;;;;;;;22.34;47.34;98916.31;5012911;28;20431;-81
2022/05/25 05:53:59;;;;;;;4.57;1.83;;;;;;;22.35;47.23;98907.34;4980239;28;20029;-81
2022/05/25 05:56:24;;;;;;;4.30;1.52;;;;;;;22.47;47.09;98920.94;4996884;28;20030;-81
2022/05/25 05:58:49;;;;;;;5.78;1.80;;;;;;;22.56;47.16;98917.94;4996556;28;20037;-82
2022/05/25 06:01:15;;;;;;;4.53;1.70;;;;;;;22.60;47.08;98905.13;5014082;28;20041;-82
2022/05/25 06:03:40;;;;;;;7.50;2.00;;;;;;;22.66;46.62;98911.50;5012634;28;20037;-82
2022/05/25 06:06:06;;;;;;;4.32;1.70;;;;;;;22.75;46.21;98913.00;5012815;28;20056;-82
2022/05/25 06:08:32;;;;;;;7.68;2.20;;;;;;;22.82;46.39;98916.56;5014333;28;20089;-81
2022/05/25 06:10:58;;;;;;;6.53;2.22;;;;;;;22.76;45.94;98922.66;5013806;28;20037;-81
2022/05/25 06:13:23;;;;;;;5.38;2.17;;;;;;;22.71;46.44;98925.06;5013719;28;20028;-82
2022/05/25 06:21:19;;;;;;;6.07;2.05;;;;;;;22.90;45.31;98920.94;5013513;28;20045;-79
2022/05/25 06:23:44;;;;;;;4.72;1.75;;;;;;;22.92;45.87;98921.56;5013241;28;20029;-79
2022/05/25 06:26:10;;;;;;;5.93;2.10;;;;;;;22.92;45.70;98917.03;5012492;28;20026;-79
2022/05/25 06:28:35;;;;;;;4.70;1.83;;;;;;;22.97;45.59;98919.13;5012940;28;20041;-80
2022/05/25 06:31:01;;;;;;;7.78;2.13;;;;;;;23.01;45.31;98928.38;5013481;28;20034;-81
2022/05/25 06:33:26;;;;;;;5.13;1.85;;;;;;;23.00;45.44;98926.72;5013385;28;20033;-81
2022/05/25 06:35:52;;;;;;;5.13;1.90;;;;;;;23.01;45.26;98925.72;5011827;28;20061;-81
2022/05/25 06:38:17;;;;;;;6.38;2.08;;;;;;;23.07;45.95;98922.31;4995672;28;20034;-81
2022/05/25 06:40:43;;;;;;;4.43;1.92;;;;;;;23.07;45.81;98921.44;5012034;28;20041;-81
2022/05/25 06:43:08;;;;;;;5.20;2.25;;;;;;;23.11;45.78;98926.22;5011389;28;20485;-80
2022/05/25 06:45:34;;;;;;;7.10;2.15;;;;;;;23.10;45.85;98913.97;5013523;28;20092;-80
2022/05/25 06:48:02;;;;;;;5.45;2.10;;;;;;;23.18;45.60;98922.78;5013435;28;20428;-80
2022/05/25 06:50:27;;;;;;;;;;;;;;;23.20;46.29;98929.59;5013568;28;20033;-81
2022/05/25 06:52:53;;;;;;;6.20;2.10;;;;;;;23.19;46.33;98927.13;5013291;28;20366;-81
2022/05/25 06:55:19;;;;;;;6.72;2.10;;;;;;;23.21;46.30;98928.56;4995704;28;20060;-81
2022/05/25 06:57:44;;;;;;;7.25;2.20;;;;;;;23.26;45.59;98927.97;4995509;28;20096;-81
2022/05/25 07:00:10;;;;;;;4.60;2.10;;;;;;;23.27;45.65;98933.09;5012957;28;20087;-81
2022/05/25 07:02:36;;;;;;;4.18;2.17;;;;;;;23.31;45.53;98941.53;5011339;28;20113;-82
2022/05/25 07:05:02;;;;;;;6.68;2.20;;;;;;;23.32;45.05;98935.19;4995566;28;20160;-81
2022/05/25 07:07:28;;;;;;;5.63;1.92;;;;;;;23.36;45.52;98940.97;4995717;28;20042;-81
2022/05/25 07:09:53;;;;;;;6.18;2.40;;;;;;;23.34;45.71;98935.00;5013183;28;20038;-82
2022/05/25 07:12:19;;;;;;;4.45;2.20;;;;;;;23.39;46.09;98941.38;4995435;28;20037;-83
2022/05/25 07:14:44;;;;;;;3.80;2.08;;;;;;;23.42;45.81;98942.81;5011402;28;20030;-82
2022/05/25 07:17:10;;;;;;;5.60;2.38;;;;;;;23.46;45.81;98941.44;5013292;28;20038;-82
2022/05/25 07:19:35;;;;;;;3.00;2.10;;;;;;;23.51;45.38;98962.16;5013218;28;20496;-84
2022/05/25 07:22:06;;;;;;;8.65;2.35;;;;;;;23.51;44.87;98951.50;5011285;28;20033;-83
2022/05/25 07:24:31;;;;;;;6.95;2.10;;;;;;;23.57;45.34;98948.88;4996166;28;20034;-82
2022/05/25 07:26:57;;;;;;;7.53;2.45;;;;;;;23.57;45.45;98938.22;5012637;28;20041;-82
2022/05/25 07:29:22;;;;;;;6.43;2.10;;;;;;;23.65;44.87;98940.72;5011449;28;20034;-82
2022/05/25 07:31:53;;;;;;;4.93;2.10;;;;;;;23.74;45.20;98957.38;4994836;28;20409;-82
2022/05/25 07:34:24;;;;;;;3.25;2.13;;;;;;;23.80;45.09;98950.44;4994789;28;20069;-82
2022/05/25 07:37:12;;;;;;;9.32;2.40;;;;;;;23.87;44.94;98955.84;4978974;28;20022;-82
2022/05/25 07:40:01;;;;;;;3.83;2.47;;;;;;;23.94;45.42;98962.00;4979483;28;20036;-81
2022/05/25 07:42:27;;;;;;;6.55;2.40;;;;;;;24.00;44.65;98958.53;5011959;28;20026;-81
2022/05/25 07:44:57;;;;;;;8.82;3.10;;;;;;;24.09;44.48;98960.03;4995014;28;20088;-81
2022/05/25 07:47:22;;;;;;;6.90;2.60;;;;;;;24.18;44.12;98966.03;4994886;28;20042;-81
2022/05/25 07:49:48;;;;;;;6.32;2.40;;;;;;;24.29;44.73;98975.25;5011800;28;20048;-81
2022/05/25 07:52:14;;;;;;;7.05;3.00;;;;;;;24.36;43.96;98966.25;4995117;28;20038;-79
2022/05/25 07:54:40;;;;;;;6.78;2.92;;;;;;;24.48;43.57;98955.84;4996284;28;20468;-80
2022/05/25 07:57:06;;;;;;;6.10;3.10;;;;;;;24.63;43.44;98970.88;4999065;28;20033;-79
2022/05/25 07:59:31;;;;;;;11.55;3.08;;;;;;;24.70;43.35;98969.03;5016276;28;20057;-79
2022/05/25 08:07:34;;;;;;;9.13;3.70;;;;;;;25.17;42.19;98959.19;5015601;28;20503;-80
2022/05/25 08:10:11;;;;;;;7.80;3.67;;;;;;;25.33;42.61;98963.31;5016247;28;20029;-80
2022/05/25 08:12:37;;;;;;;8.90;4.22;;;;;;;25.52;41.60;98963.50;5000080;28;20030;-80
2022/05/25 08:15:04;;;;;;;7.22;4.82;;;;;;;25.73;41.66;98970.44;4982769;28;20128;-80
2022/05/25 08:17:33;;;;;;;8.05;4.70;;;;;;;25.91;41.23;98969.78;4998294;28;20026;-80
2022/05/25 08:19:58;;;;;;;11.00;4.82;;;;;;;26.03;40.81;98968.13;5016265;28;20030;-80
2022/05/25 08:22:25;;;;;;;9.38;5.72;;;;;;;26.13;40.39;98963.13;5016365;28;20022;-80
2022/05/25 08:24:51;;;;;;;11.88;5.68;;;;;;;26.22;40.88;98977.09;5014998;28;20041;-80
2022/05/25 08:27:17;;;;;;;10.32;6.32;;;;;;;26.32;40.42;98974.78;5014649;28;20477;-80
2022/05/25 08:29:42;;;;;;;13.05;6.28;;;;;;;26.43;40.87;98975.97;5014884;28;20048;-80
2022/05/25 08:32:08;;;;;;;12.00;6.28;;;;;;;26.57;40.30;98984.75;5014613;28;20113;-80
2022/05/25 08:34:34;;;;;;;12.75;6.35;;;;;;;26.68;40.31;98999.34;5015513;28;20062;-81
2022/05/25 08:37:00;;;;;;;9.20;6.43;;;;;;;26.85;40.13;98991.56;5015615;28;20025;-81
2022/05/25 08:39:25;;;;;;;10.85;7.50;;;;;;;27.01;39.21;98996.41;5014668;28;20128;-83
2022/05/25 08:41:52;;;;;;;13.55;7.22;;;;;;;27.04;39.72;98996.00;4998473;28;20046;-82
2022/05/25 08:44:19;;;;;;;11.70;7.05;;;;;;;27.17;39.38;98988.88;5014280;28;20038;-82
2022/05/25 08:46:44;;;;;;;12.25;7.25;;;;;;;27.48;39.17;98985.31;4998105;28;20455;-82
2022/05/25 08:49:13;;;;;;;13.63;8.30;;;;;;;27.82;38.25;98987.66;5014071;28;20022;-81
2022/05/25 08:51:47;;;;;;;13.63;8.70;;;;;;;28.21;38.17;98973.00;4982344;28;20037;-81
2022/05/25 08:54:13;;;;;;;17.63;9.75;;;;;;;28.36;37.78;98977.94;4998442;28;20022;-81
2022/05/25 08:56:45;;;;;;;15.20;9.35;;;;;;;28.55;37.05;98976.03;4997832;28;20374;-82
2022/05/25 08:59:26;;;;;;;16.25;10.05;;;;;;;28.74;37.05;98986.75;4998502;28;20030;-82
2022/05/25 09:02:10;;;;;;;13.48;9.70;;;;;;;28.93;36.94;98984.81;5014367;28;20386;-82
2022/05/25 09:04:44;;;;;;;15.63;9.57;;;;;;;29.19;36.33;98989.78;4999420;28;20053;-81
2022/05/25 09:07:15;;;;;;;14.15;10.13;;;;;;;29.43;36.68;98987.09;4981215;28;20057;-82
2022/05/25 09:09:47;;;;;;;15.38;9.57;;;;;;;29.67;36.67;98981.72;5014848;28;20085;-81
2022/05/25 09:12:52;;;;;;;24.65;9.95;;;;;;;29.86;36.01;98977.03;5013910;28;20116;-81
2022/05/25 09:15:24;;;;;;;15.57;9.60;;;;;;;29.98;35.43;98975.09;5032435;28;20492;-81
2022/05/25 09:18:02;;;;;;;15.95;9.15;;;;;;;30.21;35.25;98976.09;5016286;28;20459;-80
2022/05/25 09:20:33;;;;;;;14.65;8.82;;;;;;;30.41;35.04;98975.69;4999787;28;20029;-81
2022/05/25 09:22:58;;;;;;;13.57;9.43;;;;;;;30.54;35.07;98972.72;5016139;28;20084;-80
2022/05/25 09:25:24;;;;;;;14.18;9.52;;;;;;;30.58;34.62;98960.38;5032569;28;20029;-81
2022/05/25 09:28:07;;;;;;;15.20;9.75;;;;;;;30.42;33.68;98969.25;5015981;28;20029;-81
2022/05/25 09:30:37;;;;;;;15.45;9.73;;;;;;;30.42;33.92;98961.16;5017702;28;20041;-81
2022/05/25 09:33:31;;;;;;;17.70;10.48;;;;;;;30.49;34.10;98968.03;5016109;28;20033;-80
2022/05/25 09:36:08;;;;;;;13.85;9.68;;;;;;;30.40;33.68;98966.78;5031977;28;20116;-81
2022/05/25 09:38:42;;;;;;;15.82;9.68;;;;;;;30.43;34.04;98957.44;5017092;28;20112;-80
2022/05/25 09:41:12;;;;;;;13.20;9.23;;;;;;;30.45;33.82;98958.81;5032469;28;20103;-81
2022/05/25 09:43:38;;;;;;;18.38;10.32;;;;;;;30.25;33.35;98953.84;5031695;28;20033;-81
2022/05/25 09:46:10;;;;;;;14.45;10.18;;;;;;;30.09;33.38;98960.81;5015394;28;20048;-81
2022/05/25 09:48:50;;;;;;;15.27;10.68;;;;;;;30.12;33.69;98954.13;4994862;28;20038;-81
2022/05/25 09:51:21;;;;;;;15.25;10.40;;;;;;;30.31;33.82;98970.91;4997553;28;20038;-81
2022/05/25 09:54:11;;;;;;;15.65;10.50;;;;;;;30.15;33.92;98975.19;5014275;28;20037;-81
2022/05/25 09:56:44;;;;;;;18.30;10.57;;;;;;;30.04;34.11;98958.00;5013997;28;20044;-80
2022/05/25 09:59:30;;;;;;;13.98;11.07;;;;;;;30.10;34.17;98962.44;4996607;28;20022;-81
2022/05/25 10:01:56;;;;;;;14.55;10.93;;;;;;;30.23;34.58;98958.63;5013875;28;20104;-81
2022/05/25 10:04:51;;;;;;;13.55;10.52;;;;;;;30.32;34.65;98956.38;4996969;28;20098;-81
2022/05/25 10:07:45;;;;;;;17.05;11.18;;;;;;;30.38;34.49;98955.47;4998585;28;20034;-81
2022/05/25 10:10:12;;;;;;;18.67;11.05;;;;;;;30.43;35.28;98949.34;5015037;28;20124;-80
2022/05/25 10:12:37;;;;;;;15.85;10.90;;;;;;;30.36;34.21;98943.25;5013167;28;20030;-80
2022/05/25 10:15:05;;;;;;;17.00;11.00;;;;;;;30.27;34.23;98942.84;5014215;28;20080;-81
2022/05/25 10:17:36;;;;;;;17.08;11.70;;;;;;;29.87;34.60;98927.53;4980623;28;20153;-81
2022/05/25 10:20:03;;;;;;;16.30;11.02;;;;;;;29.77;34.70;98936.19;4980385;28;20026;-82
2022/05/25 10:22:36;;;;;;;15.55;11.20;;;;;;;29.64;34.65;98933.75;4996263;28;20038;-82
2022/05/25 10:25:27;;;;;;;14.18;11.30;;;;;;;29.45;35.02;98933.09;5013036;28;20022;-80
2022/05/25 10:27:53;;;;;;;20.15;12.27;;;;;;;29.36;35.65;98936.13;5012953;28;20448;-81
2022/05/25 10:38:48;;;;;;;19.95;13.02;;;;;;;28.58;36.92;98929.16;4998999;28;20511;-81
2022/05/25 10:44:18;;;;;;;17.77;12.85;;;;;;;28.46;37.24;98919.13;4998925;28;20499;-82
2022/05/25 10:46:53;;;;;;;17.58;13.10;;;;;;;28.45;37.25;98925.56;4996212;28;20472;-80
2022/05/25 10:49:37;;;;;;;18.83;13.70;;;;;;;28.48;37.40;98935.03;4996273;28;20493;-81
2022/05/25 10:52:08;;;;;;;18.77;13.27;;;;;;;28.45;37.76;98947.06;5012255;28;20052;-81
2022/05/25 10:54:46;;;;;;;19.80;14.27;;;;;;;28.60;37.38;98948.53;5012102;28;20030;-81
2022/05/25 10:57:30;;;;;;;18.65;13.32;;;;;;;28.75;37.42;98942.72;5013573;28;20038;-82
2022/05/25 11:00:09;;;;;;;18.25;13.30;;;;;;;28.70;37.65;98938.03;5011980;28;20041;-82
2022/05/25 11:02:53;;;;;;;18.65;12.40;;;;;;;28.60;37.75;98927.84;4995941;28;20484;-82
2022/05/25 11:05:32;;;;;;;23.05;13.75;;;;;;;28.67;37.79;98935.78;5013290;28;20026;-82
2022/05/25 11:08:21;;;;;;;18.30;13.55;;;;;;;28.74;37.22;98941.91;5012341;28;20068;-80
2022/05/25 11:11:00;;;;;;;16.90;13.27;;;;;;;28.78;37.83;98935.03;5012757;28;20117;-81
2022/05/25 11:14:02;;;;;;;19.63;12.95;;;;;;;28.78;37.34;98940.41;5012810;28;20108;-81
2022/05/25 11:16:38;;;;;;;19.77;13.73;;;;;;;28.67;37.58;98933.94;5013395;28;20040;-81
2022/05/25 11:19:16;;;;;;;20.23;14.13;;;;;;;28.84;37.34;98941.31;5013793;28;20037;-81
2022/05/25 11:21:50;;;;;;;20.85;13.75;;;;;;;28.40;38.31;98938.03;5012933;28;20034;-80
2022/05/25 11:24:22;;;;;;;20.20;13.98;;;;;;;28.48;38.11;98926.97;5012809;28;20026;-80
2022/05/25 11:27:16;;;;;;;18.10;13.68;;;;;;;28.47;37.89;98919.97;5011467;28;20033;-81
2022/05/25 11:30:00;;;;;;;23.67;13.82;;;;;;;28.37;38.08;98917.84;4998218;28;20493;-81
2022/05/25 11:32:52;;;;;;;16.90;13.57;;;;;;;28.24;38.28;98908.09;5012776;28;20029;-81
2022/05/25 11:35:51;;;;;;;24.77;13.75;;;;;;;28.16;38.72;98903.06;5010671;28;20132;-81
2022/05/25 11:38:37;;;;;;;21.05;14.27;;;;;;;27.95;39.28;98915.13;5030046;28;20566;-81
2022/05/25 11:41:21;;;;;;;21.10;14.02;;;;;;;27.94;39.12;98910.75;5030554;28;20029;-81
2022/05/25 11:44:14;;;;;;;21.98;14.57;;;;;;;27.87;39.31;98904.66;5030094;28;20029;-81
2022/05/25 11:46:42;;;;;;;20.13;14.30;;;;;;;27.83;39.20;98901.59;5016637;28;20022;-81
2022/05/25 11:49:46;;;;;;;19.17;14.32;;;;;;;27.69;39.79;98906.31;5013831;28;20133;-81
2022/05/25 11:52:49;;;;;;;19.58;14.75;;;;;;;27.53;40.11;98906.91;5029765;28;20025;-81
2022/05/25 11:55:52;;;;;;;19.00;14.80;;;;;;;27.50;40.02;98897.47;5029989;28;20042;-80
2022/05/25 11:58:32;;;;;;;24.67;14.07;;;;;;;27.69;39.76;98884.88;5029377;28;20030;-78
2022/05/25 12:01:16;;;;;;;17.58;14.45;;;;;;;27.83;40.13;98877.44;5015665;28;20038;-80
2022/05/25 12:03:55;;;;;;;16.92;8.80;;;;;;;28.02;38.24;98882.81;5027720;28;20128;-83
2022/05/25 12:06:44;;;;;;;22.38;11.63;;;;;;;28.11;38.24;98884.94;5030211;28;20145;-84
2022/05/25 12:09:30;;;;;;;21.73;13.10;;;;;;;28.22;38.11;98878.00;5027498;28;20061;-84
2022/05/25 12:11:59;;;;;;;24.63;13.35;;;;;;;28.28;38.36;98871.72;5026412;28;20120;-84
2022/05/25 12:14:34;;;;;;;16.42;13.65;;;;;;;28.37;37.89;98861.47;5022104;28;20048;-85
2022/05/25 12:17:28;;;;;;;15.73;11.50;;;;;;;28.38;37.48;98865.78;5011396;28;20405;-84